Time;durP1;ratioP1;P1;durP2;ratioP2;P2;SDS_P1;SDS_P2;PMS_P1;PMS_P2;Temp;Humidity;BMP_temperature;BMP_pressure;BME280_temperature;BME280_humidity;BME280_pressure;Samples;Min_cycle;Max_cycle;Signal;HPM_P1;HPM_P2
2024/02/15 00:00:07;;;;;;;6.82;6.22;;;12.10;99.90;;;;;;5114174;27;20219;-77
2024/02/15 00:02:35;;;;;;;6.13;5.53;;;12.10;99.90;;;;;;5111282;27;20214;-77
2024/02/15 00:05:05;;;;;;;6.88;5.60;;;12.10;99.90;;;;;;5128631;27;20214;-77
2024/02/15 00:07:34;;;;;;;5.75;5.25;;;12.00;99.90;;;;;;5144573;27;20222;-75
2024/02/15 00:10:04;;;;;;;6.95;6.35;;;12.10;99.90;;;;;;5136217;27;20245;-75
2024/02/15 00:12:33;;;;;;;7.20;6.60;;;12.10;99.90;;;;;;5134462;27;20237;-78
2024/02/15 00:15:00;;;;;;;6.05;5.50;;;12.00;99.90;;;;;;5132062;27;20584;-82
2024/02/15 00:17:29;;;;;;;6.53;5.93;;;12.10;99.90;;;;;;5114168;27;20227;-81
2024/02/15 00:19:56;;;;;;;6.68;6.05;;;12.10;99.90;;;;;;5134847;27;20222;-75
2024/02/15 00:22:23;;;;;;;4.93;4.53;;;12.00;99.90;;;;;;5134837;27;20226;-75
2024/02/15 00:24:53;;;;;;;5.60;5.10;;;12.00;99.90;;;;;;5152787;27;20251;-76
2024/02/15 00:27:21;;;;;;;10.02;7.07;;;12.10;99.90;;;;;;5145864;27;20270;-78
2024/02/15 00:29:55;;;;;;;6.90;6.25;;;12.10;99.90;;;;;;5154501;27;20221;-77
2024/02/15 00:32:22;;;;;;;8.25;7.53;;;12.10;99.90;;;;;;5155361;27;20221;-77
2024/02/15 00:34:49;;;;;;;8.05;7.25;;;12.10;99.90;;;;;;5137094;27;20233;-78
2024/02/15 00:37:16;;;;;;;6.47;5.97;;;12.10;99.90;;;;;;5134454;27;20274;-77
2024/02/15 00:39:43;;;;;;;6.57;5.65;;;12.10;99.90;;;;;;5148409;27;20229;-76
2024/02/15 00:42:10;;;;;;;10.93;7.63;;;12.10;99.90;;;;;;5153727;27;20217;-77
2024/02/15 00:44:46;;;;;;;6.68;5.88;;;12.10;99.90;;;;;;5123283;27;20227;-77
2024/02/15 00:47:15;;;;;;;5.85;5.20;;;12.20;99.90;;;;;;5126557;27;20206;-77
2024/02/15 00:49:42;;;;;;;6.43;5.93;;;12.20;99.90;;;;;;5134411;27;20226;-76
2024/02/15 00:52:09;;;;;;;37.47;25.98;;;12.20;99.90;;;;;;5133879;27;20226;-76
2024/02/15 00:54:36;;;;;;;9.00;8.18;;;12.20;99.90;;;;;;5135370;27;20218;-76
2024/02/15 00:57:03;;;;;;;7.13;6.43;;;12.20;99.90;;;;;;5131697;27;20692;-77
2024/02/15 00:59:31;;;;;;;6.03;5.63;;;12.10;99.90;;;;;;5128773;27;20225;-76
2024/02/15 01:01:59;;;;;;;8.75;7.63;;;12.10;99.90;;;;;;5129124;27;20907;-77
2024/02/15 01:04:28;;;;;;;6.60;6.10;;;12.10;99.90;;;;;;5118512;27;20222;-75
2024/02/15 01:06:55;;;;;;;7.30;6.60;;;12.10;99.90;;;;;;5130718;27;20301;-75
2024/02/15 01:09:23;;;;;;;7.00;6.35;;;12.10;99.90;;;;;;5133340;27;20222;-77
2024/02/15 01:11:50;;;;;;;12.23;9.40;;;12.10;99.90;;;;;;5132929;27;20675;-75
2024/02/15 01:14:17;;;;;;;7.40;6.80;;;12.10;99.90;;;;;;5116314;27;20309;-77
2024/02/15 01:16:44;;;;;;;7.47;6.78;;;12.10;99.90;;;;;;5134929;27;20222;-77
2024/02/15 01:19:11;;;;;;;8.60;7.90;;;12.10;99.90;;;;;;5149948;27;20579;-78
2024/02/15 01:21:40;;;;;;;8.15;7.45;;;12.10;99.90;;;;;;5143751;27;20248;-78
2024/02/15 01:24:07;;;;;;;8.05;7.25;;;12.10;99.90;;;;;;5139631;27;20290;-75
2024/02/15 01:26:34;;;;;;;8.82;8.13;;;12.00;99.90;;;;;;5154565;27;20686;-75
2024/02/15 01:29:02;;;;;;;7.45;6.75;;;12.00;99.90;;;;;;5151632;27;20212;-76
2024/02/15 01:31:29;;;;;;;7.85;7.20;;;12.00;99.90;;;;;;5137587;27;20249;-76
2024/02/15 01:33:56;;;;;;;8.32;7.60;;;12.00;99.90;;;;;;5132239;27;20257;-76
2024/02/15 01:36:24;;;;;;;11.65;10.45;;;12.00;99.90;;;;;;5133478;28;20214;-78
2024/02/15 01:38:53;;;;;;;18.27;16.20;;;12.00;99.90;;;;;;5132035;27;20639;-76
2024/02/15 01:41:20;;;;;;;9.88;9.00;;;12.00;99.90;;;;;;5121033;28;20248;-76
2024/02/15 01:43:47;;;;;;;10.02;9.13;;;12.00;99.90;;;;;;5127144;27;20228;-76
2024/02/15 01:46:16;;;;;;;9.05;8.25;;;12.00;99.90;;;;;;5133759;28;20270;-75
2024/02/15 01:48:43;;;;;;;8.35;7.55;;;11.90;99.90;;;;;;5133337;28;20221;-75
2024/02/15 01:51:12;;;;;;;8.75;7.93;;;11.90;99.90;;;;;;5131983;28;20639;-75
2024/02/15 01:53:41;;;;;;;14.48;12.70;;;12.00;99.90;;;;;;5115497;28;20238;-77
2024/02/15 01:56:10;;;;;;;11.85;10.75;;;12.00;99.90;;;;;;5130081;28;20571;-77
2024/02/15 01:58:40;;;;;;;8.65;7.85;;;12.00;99.90;;;;;;5111391;28;20214;-78
2024/02/15 02:01:08;;;;;;;9.18;8.35;;;12.10;99.90;;;;;;5116184;28;20227;-77
2024/02/15 02:03:36;;;;;;;10.60;9.60;;;12.10;99.90;;;;;;5115341;28;20230;-77
2024/02/15 02:06:04;;;;;;;17.55;12.48;;;12.10;99.90;;;;;;5129738;27;20221;-78
2024/02/15 02:08:31;;;;;;;11.73;9.52;;;12.10;99.90;;;;;;5105522;27;20446;-77
2024/02/15 02:10:58;;;;;;;16.17;13.20;;;12.20;99.90;;;;;;5094457;28;20234;-77
2024/02/15 02:13:27;;;;;;;19.08;11.70;;;12.20;99.90;;;;;;5097442;28;20604;-78
2024/02/15 02:15:54;;;;;;;24.33;12.75;;;12.20;99.90;;;;;;5114763;28;20684;-78
2024/02/15 02:18:24;;;;;;;22.27;15.05;;;12.30;99.90;;;;;;5115616;28;20246;-78
2024/02/15 02:20:51;;;;;;;30.95;18.05;;;12.30;99.90;;;;;;5111935;28;20275;-78
2024/02/15 02:23:22;;;;;;;18.27;14.73;;;12.40;99.90;;;;;;5117770;27;20591;-78
2024/02/15 02:25:51;;;;;;;16.95;14.98;;;12.40;99.90;;;;;;5121377;27;20226;-78
2024/02/15 02:28:18;;;;;;;20.33;17.55;;;12.40;99.90;;;;;;5134111;27;20347;-78
2024/02/15 02:30:45;;;;;;;12.93;11.68;;;12.50;99.90;;;;;;5134710;27;20286;-78
2024/02/15 02:33:17;;;;;;;12.57;11.38;;;12.50;99.90;;;;;;5124702;27;20567;-78
2024/02/15 02:35:45;;;;;;;13.70;12.35;;;12.50;99.90;;;;;;5113105;28;20243;-76
2024/02/15 02:38:12;;;;;;;13.18;10.27;;;12.50;99.90;;;;;;5093758;28;20220;-76
2024/02/15 02:40:39;;;;;;;13.10;11.60;;;12.50;99.90;;;;;;5093719;28;20227;-78
2024/02/15 02:43:08;;;;;;;16.25;14.57;;;12.50;99.90;;;;;;5094736;28;20745;-78
2024/02/15 02:45:35;;;;;;;13.25;12.05;;;12.50;99.90;;;;;;5095913;28;20242;-76
2024/02/15 02:48:01;;;;;;;13.65;12.23;;;12.50;99.90;;;;;;5095044;28;20223;-76
2024/02/15 02:50:28;;;;;;;11.57;10.48;;;12.50;99.90;;;;;;5095633;28;20551;-76
2024/02/15 02:52:56;;;;;;;11.85;10.75;;;12.50;99.90;;;;;;5115907;28;20237;-76
2024/02/15 02:55:26;;;;;;;9.75;8.82;;;12.40;99.90;;;;;;5118506;28;20215;-78
2024/02/15 02:57:54;;;;;;;12.88;9.70;;;12.40;99.90;;;;;;5116958;28;20214;-78
2024/02/15 03:00:23;;;;;;;13.13;11.60;;;12.50;99.90;;;;;;5118405;28;20285;-75
2024/02/15 03:02:50;;;;;;;13.48;12.05;;;12.50;99.90;;;;;;5123407;28;20226;-78
2024/02/15 03:05:20;;;;;;;10.95;9.85;;;12.50;99.90;;;;;;5118158;28;20214;-76
2024/02/15 03:07:48;;;;;;;11.63;10.48;;;12.40;99.90;;;;;;5117357;28;20226;-76
2024/02/15 03:10:15;;;;;;;23.08;19.75;;;12.50;99.90;;;;;;5116254;28;20689;-78
2024/02/15 03:12:45;;;;;;;21.73;15.55;;;12.50;99.90;;;;;;5116345;28;20231;-78
2024/02/15 03:15:13;;;;;;;14.40;12.70;;;12.50;99.90;;;;;;5113699;28;20594;-78
2024/02/15 03:17:42;;;;;;;13.45;12.10;;;12.50;99.90;;;;;;5116024;28;20611;-78
2024/02/15 03:20:20;;;;;;;12.82;11.48;;;12.50;99.90;;;;;;5115530;28;20276;-78
2024/02/15 03:22:52;;;;;;;12.43;10.18;;;12.50;99.90;;;;;;5115834;28;20230;-76
2024/02/15 03:25:19;;;;;;;12.38;11.20;;;12.50;99.90;;;;;;5115621;28;20218;-78
2024/02/15 03:27:46;;;;;;;13.57;12.27;;;12.50;99.90;;;;;;5116236;28;20226;-78
2024/02/15 03:30:13;;;;;;;15.70;13.73;;;12.50;99.90;;;;;;5115228;28;20249;-78
2024/02/15 03:32:42;;;;;;;27.38;24.38;;;12.50;99.90;;;;;;5115651;28;20234;-76
2024/02/15 03:35:14;;;;;;;14.07;12.65;;;12.50;99.90;;;;;;5115055;28;20226;-78
2024/02/15 03:37:41;;;;;;;11.02;9.93;;;12.50;99.90;;;;;;5115933;28;20618;-78
2024/02/15 03:40:09;;;;;;;15.68;14.05;;;12.50;99.90;;;;;;5115355;28;20218;-78
2024/02/15 03:42:37;;;;;;;13.20;11.90;;;12.50;99.90;;;;;;5117048;28;20222;-78
2024/02/15 03:45:06;;;;;;;13.73;11.38;;;12.40;99.90;;;;;;5118039;28;20223;-78
2024/02/15 03:47:33;;;;;;;12.40;11.20;;;12.40;99.90;;;;;;5122469;28;20539;-79
2024/02/15 03:50:01;;;;;;;13.70;12.30;;;12.50;99.90;;;;;;5124423;28;20278;-78
2024/02/15 03:52:29;;;;;;;11.75;10.65;;;12.40;99.90;;;;;;5125829;28;20226;-77
2024/02/15 03:54:57;;;;;;;11.27;10.18;;;12.40;99.90;;;;;;5124231;28;20223;-77
2024/02/15 03:57:24;;;;;;;16.13;14.10;;;12.50;99.90;;;;;;5123849;28;20214;-77
2024/02/15 03:59:52;;;;;;;12.30;11.20;;;12.50;99.90;;;;;;5125272;28;20222;-78
2024/02/15 04:02:19;;;;;;;12.32;11.07;;;12.50;99.90;;;;;;5123893;28;20254;-77
2024/02/15 04:04:48;;;;;;;16.67;14.90;;;12.50;99.90;;;;;;5124601;28;20248;-79
2024/02/15 04:07:17;;;;;;;13.20;11.90;;;12.50;99.90;;;;;;5124250;28;20235;-78
2024/02/15 04:09:45;;;;;;;12.05;10.90;;;12.50;99.90;;;;;;5130461;28;20676;-79
2024/02/15 04:12:12;;;;;;;11.60;10.60;;;12.60;99.90;;;;;;5122877;28;20226;-78
2024/02/15 04:14:39;;;;;;;17.13;15.13;;;12.60;99.90;;;;;;5116071;28;20688;-76
2024/02/15 04:17:06;;;;;;;14.70;13.15;;;12.60;99.90;;;;;;5114687;28;20223;-76
2024/02/15 04:19:34;;;;;;;14.27;12.88;;;12.60;99.90;;;;;;5115041;28;20672;-76
2024/02/15 04:22:04;;;;;;;18.42;16.55;;;12.60;99.90;;;;;;5114877;28;20355;-76
2024/02/15 04:24:32;;;;;;;14.47;11.97;;;12.60;99.90;;;;;;5114450;28;20311;-76
2024/02/15 04:26:59;;;;;;;11.77;10.55;;;12.60;99.90;;;;;;5114642;28;20475;-76
2024/02/15 04:29:26;;;;;;;12.23;11.02;;;12.60;99.90;;;;;;5114386;28;21876;-76
2024/02/15 04:31:54;;;;;;;12.68;11.38;;;12.60;99.90;;;;;;5115089;28;20225;-78
2024/02/15 04:34:22;;;;;;;12.45;11.25;;;12.60;99.90;;;;;;5114327;28;20246;-78
2024/02/15 04:36:50;;;;;;;11.63;10.50;;;12.60;99.90;;;;;;5115016;28;20226;-76
2024/02/15 04:39:23;;;;;;;11.27;10.23;;;12.60;99.90;;;;;;5114371;28;20620;-78
2024/02/15 04:41:55;;;;;;;12.35;10.15;;;12.60;99.90;;;;;;5114268;28;20238;-78
2024/02/15 04:44:26;;;;;;;16.30;12.88;;;12.70;99.90;;;;;;5114370;28;20227;-76
2024/02/15 04:46:54;;;;;;;11.05;9.95;;;12.60;99.90;;;;;;5113509;28;20250;-76
2024/02/15 04:49:24;;;;;;;10.60;9.60;;;12.70;99.90;;;;;;5102764;28;20552;-78
2024/02/15 04:51:51;;;;;;;11.68;10.40;;;12.70;99.90;;;;;;5112527;28;20237;-76
2024/02/15 04:54:18;;;;;;;11.20;10.05;;;12.70;99.90;;;;;;5113487;28;20222;-76
2024/02/15 04:56:45;;;;;;;11.85;10.75;;;12.70;99.90;;;;;;5114596;28;20612;-76
2024/02/15 04:59:15;;;;;;;13.32;10.90;;;12.70;99.90;;;;;;5113847;28;20214;-76
2024/02/15 05:01:42;;;;;;;11.15;10.05;;;12.70;99.90;;;;;;5113282;28;20222;-76
2024/02/15 05:04:10;;;;;;;10.77;9.68;;;12.70;99.90;;;;;;5113886;28;20226;-76
2024/02/15 05:06:41;;;;;;;11.50;10.40;;;12.70;99.90;;;;;;5113182;28;20222;-78
2024/02/15 05:09:10;;;;;;;10.40;9.40;;;12.70;99.90;;;;;;5114236;28;20653;-78
2024/02/15 05:11:38;;;;;;;11.07;9.98;;;12.70;99.90;;;;;;5113721;28;20631;-78
2024/02/15 05:14:06;;;;;;;11.68;10.48;;;12.70;99.90;;;;;;5114068;28;20235;-78
2024/02/15 05:16:43;;;;;;;12.27;10.98;;;12.70;99.90;;;;;;5113575;28;20223;-78
2024/02/15 05:19:11;;;;;;;10.00;9.20;;;12.70;99.90;;;;;;5113922;28;20234;-78
2024/02/15 05:21:39;;;;;;;18.23;15.30;;;12.70;99.90;;;;;;5113281;28;20550;-78
2024/02/15 05:24:06;;;;;;;13.63;10.57;;;12.70;99.90;;;;;;5113653;28;20681;-78
2024/02/15 05:26:33;;;;;;;11.32;9.85;;;12.70;99.90;;;;;;5104602;28;20229;-78
2024/02/15 05:29:00;;;;;;;11.45;10.15;;;12.70;99.90;;;;;;5114150;28;20564;-78
2024/02/15 05:31:27;;;;;;;22.52;17.75;;;12.70;99.90;;;;;;5113168;28;20248;-78
2024/02/15 05:33:57;;;;;;;23.20;16.13;;;12.70;99.90;;;;;;5112898;28;20246;-76
2024/02/15 05:36:25;;;;;;;12.30;11.10;;;12.70;99.90;;;;;;5113250;28;20288;-78
2024/02/15 05:38:54;;;;;;;11.60;10.60;;;12.70;99.90;;;;;;5114447;28;20221;-78
2024/02/15 05:41:22;;;;;;;14.00;12.00;;;12.80;99.90;;;;;;5118150;28;20811;-76
2024/02/15 05:43:49;;;;;;;10.93;9.85;;;12.80;99.90;;;;;;5117494;28;20491;-76
2024/02/15 05:46:16;;;;;;;12.30;11.10;;;12.80;99.90;;;;;;5117954;28;20230;-78
2024/02/15 05:48:43;;;;;;;11.20;10.10;;;12.70;99.90;;;;;;5117272;28;20248;-76
2024/02/15 05:51:12;;;;;;;11.27;10.07;;;12.70;99.90;;;;;;5118112;28;20279;-78
2024/02/15 05:53:40;;;;;;;11.30;9.43;;;12.70;99.90;;;;;;5117379;28;20230;-78
2024/02/15 05:56:10;;;;;;;10.30;9.30;;;12.70;99.90;;;;;;5117903;28;20218;-78
2024/02/15 05:58:37;;;;;;;10.48;9.48;;;12.60;99.90;;;;;;5117437;28;20460;-78
2024/02/15 06:01:06;;;;;;;9.70;8.70;;;12.60;99.90;;;;;;5117452;28;20306;-75
2024/02/15 06:03:34;;;;;;;11.38;9.48;;;12.70;99.90;;;;;;5117007;28;20496;-76
2024/02/15 06:06:06;;;;;;;9.87;8.03;;;12.70;99.90;;;;;;5117690;28;20260;-75
2024/02/15 06:08:34;;;;;;;10.50;8.38;;;12.70;99.90;;;;;;5116484;28;20495;-77
2024/02/15 06:11:02;;;;;;;15.60;13.30;;;12.70;99.90;;;;;;5117645;28;20242;-77
2024/02/15 06:13:29;;;;;;;13.05;11.65;;;12.70;99.90;;;;;;5117232;28;20523;-78
2024/02/15 06:15:56;;;;;;;13.57;12.27;;;12.80;99.90;;;;;;5117328;28;20630;-77
2024/02/15 06:18:28;;;;;;;14.18;12.73;;;12.80;99.90;;;;;;5117441;28;20827;-77
2024/02/15 06:20:57;;;;;;;12.17;10.70;;;12.80;99.90;;;;;;5116729;28;20250;-78
2024/02/15 06:23:25;;;;;;;11.30;10.20;;;12.80;99.90;;;;;;5117753;28;20829;-75
2024/02/15 06:25:56;;;;;;;11.20;10.10;;;12.80;99.90;;;;;;5116728;28;20529;-75
2024/02/15 06:42:03;;;;;;;10.30;9.35;;;12.80;99.90;;;;;;5115685;28;20483;-78
2024/02/15 06:44:30;;;;;;;10.35;8.50;;;12.90;99.90;;;;;;5116972;28;20214;-78
2024/02/15 06:46:57;;;;;;;10.63;9.10;;;12.90;99.90;;;;;;5116041;28;20263;-78
2024/02/15 06:49:25;;;;;;;9.70;8.80;;;12.90;99.90;;;;;;5116163;28;20460;-78
2024/02/15 06:51:54;;;;;;;10.47;9.40;;;12.90;99.90;;;;;;5116708;28;20476;-76
2024/02/15 06:54:22;;;;;;;11.40;10.30;;;12.90;99.90;;;;;;5116508;28;20463;-75
2024/02/15 06:56:51;;;;;;;11.90;10.73;;;13.00;99.90;;;;;;5117002;28;20226;-75
2024/02/15 06:59:22;;;;;;;17.07;12.30;;;13.00;99.90;;;;;;5116346;28;20223;-76
2024/02/15 07:01:49;;;;;;;14.02;12.52;;;13.00;99.90;;;;;;5116578;28;20475;-78
2024/02/15 07:04:16;;;;;;;14.10;12.55;;;13.00;99.90;;;;;;5116914;28;20551;-78
2024/02/15 07:06:47;;;;;;;12.38;10.88;;;13.00;99.90;;;;;;5116849;28;20248;-78
2024/02/15 07:09:17;;;;;;;14.98;13.02;;;13.00;99.90;;;;;;5117279;28;20223;-78
2024/02/15 07:11:46;;;;;;;12.80;10.88;;;13.00;99.90;;;;;;5120716;28;20238;-78
2024/02/15 07:14:13;;;;;;;13.63;12.23;;;13.00;99.90;;;;;;5122198;28;20226;-78
2024/02/15 07:16:45;;;;;;;12.02;10.77;;;13.00;99.90;;;;;;5118766;28;20286;-78
2024/02/15 07:19:12;;;;;;;12.10;9.90;;;13.00;99.90;;;;;;5118136;28;20260;-78
2024/02/15 07:21:39;;;;;;;10.73;9.63;;;13.10;99.90;;;;;;5117729;28;20551;-76
2024/02/15 07:24:07;;;;;;;10.00;9.00;;;13.10;99.90;;;;;;5116001;28;20548;-76
2024/02/15 07:26:35;;;;;;;10.23;9.10;;;13.10;99.90;;;;;;5119166;28;20460;-76
2024/02/15 07:29:05;;;;;;;10.07;8.43;;;13.10;99.90;;;;;;5117219;28;20518;-77
2024/02/15 07:31:33;;;;;;;8.75;7.95;;;13.20;99.90;;;;;;5120959;28;20850;-78
2024/02/15 07:34:02;;;;;;;9.35;8.15;;;13.20;99.90;;;;;;5117033;28;20569;-78
2024/02/15 07:36:30;;;;;;;7.80;7.10;;;13.20;99.90;;;;;;5116304;28;20219;-76
2024/02/15 07:39:00;;;;;;;8.50;7.80;;;13.20;99.90;;;;;;5116414;28;20287;-78
2024/02/15 07:41:28;;;;;;;9.20;8.30;;;13.30;99.90;;;;;;5115790;28;20457;-78
2024/02/15 07:43:57;;;;;;;9.97;8.30;;;13.30;99.90;;;;;;5120823;28;20476;-78
2024/02/15 07:46:28;;;;;;;9.13;8.37;;;13.30;99.90;;;;;;5115161;28;20540;-78
2024/02/15 07:48:57;;;;;;;9.20;8.30;;;13.30;99.90;;;;;;5117092;28;20460;-77
2024/02/15 07:51:25;;;;;;;7.97;7.27;;;13.30;99.90;;;;;;5117422;28;20468;-78
2024/02/15 07:53:56;;;;;;;9.40;8.50;;;13.30;99.90;;;;;;5117345;28;20547;-77
2024/02/15 07:56:23;;;;;;;8.10;7.30;;;13.30;99.90;;;;;;5117260;28;20496;-75
2024/02/15 07:58:51;;;;;;;8.97;8.07;;;13.40;99.90;;;;;;5116166;28;20313;-76
2024/02/15 08:01:20;;;;;;;11.40;7.80;;;13.40;99.90;;;;;;5114341;28;20526;-77
2024/02/15 08:03:47;;;;;;;11.43;10.37;;;13.40;99.90;;;;;;5115475;28;20511;-76
2024/02/15 08:06:16;;;;;;;10.63;9.53;;;13.40;99.90;;;;;;5115925;28;20469;-78
2024/02/15 08:08:45;;;;;;;11.37;10.37;;;13.40;99.90;;;;;;5114535;28;20464;-76
2024/02/15 08:11:15;;;;;;;11.57;9.30;;;13.40;99.90;;;;;;5116153;28;20460;-76
2024/02/15 08:13:45;;;;;;;9.63;8.70;;;13.50;99.90;;;;;;5115518;28;20472;-76
2024/02/15 08:16:15;;;;;;;10.63;9.10;;;13.50;99.90;;;;;;5114447;28;20545;-76
2024/02/15 08:18:46;;;;;;;9.43;7.87;;;13.50;99.90;;;;;;5115289;28;20556;-78
2024/02/15 08:21:14;;;;;;;7.93;7.20;;;13.50;99.90;;;;;;5104101;28;20473;-78
2024/02/15 08:23:41;;;;;;;9.30;8.50;;;13.50;99.90;;;;;;5114477;28;20502;-78
2024/02/15 08:26:10;;;;;;;9.40;8.27;;;13.50;99.90;;;;;;5115274;28;20798;-78
2024/02/15 08:28:38;;;;;;;9.27;8.37;;;13.50;99.90;;;;;;5114480;28;20516;-78
2024/02/15 08:31:05;;;;;;;7.60;6.90;;;13.50;99.90;;;;;;5114837;28;20465;-78
2024/02/15 08:33:32;;;;;;;7.77;6.60;;;13.50;99.90;;;;;;5114231;28;20468;-78
2024/02/15 08:36:03;;;;;;;7.80;7.10;;;13.50;99.90;;;;;;5106007;28;20546;-78
2024/02/15 08:38:30;;;;;;;7.40;6.70;;;13.50;99.90;;;;;;5108531;28;20556;-76
2024/02/15 08:40:58;;;;;;;8.80;7.90;;;13.60;99.90;;;;;;5115532;28;20800;-76
2024/02/15 08:43:26;;;;;;;7.03;6.40;;;13.60;99.90;;;;;;5113961;28;20476;-78
2024/02/15 08:45:54;;;;;;;7.80;7.00;;;13.60;99.90;;;;;;5114452;28;20774;-78
2024/02/15 08:48:23;;;;;;;7.73;7.03;;;13.70;99.90;;;;;;5114750;28;20460;-76
2024/02/15 08:50:56;;;;;;;7.77;7.10;;;13.70;99.90;;;;;;5114449;28;20789;-78
2024/02/15 08:53:24;;;;;;;12.20;10.93;;;13.70;99.90;;;;;;5113807;28;20468;-76
2024/02/15 08:55:52;;;;;;;9.70;8.80;;;13.70;99.90;;;;;;5104606;28;20453;-76
2024/02/15 08:58:21;;;;;;;9.20;8.23;;;13.70;99.90;;;;;;5114585;28;20536;-75
2024/02/15 09:00:49;;;;;;;8.83;7.30;;;13.80;99.90;;;;;;5114186;28;20532;-78
2024/02/15 09:03:19;;;;;;;8.67;7.87;;;13.80;99.90;;;;;;5113329;28;20526;-78
2024/02/15 09:05:46;;;;;;;8.37;7.57;;;13.80;99.90;;;;;;5114148;28;20953;-78
2024/02/15 09:08:14;;;;;;;8.00;7.10;;;13.80;99.90;;;;;;5113701;28;20460;-78
2024/02/15 09:10:40;;;;;;;7.63;6.93;;;13.80;99.90;;;;;;5113773;28;20572;-78
2024/02/15 09:13:08;;;;;;;7.70;6.97;;;13.90;99.90;;;;;;5113531;28;20465;-78
2024/02/15 09:15:35;;;;;;;7.10;6.47;;;13.80;99.90;;;;;;5113104;28;20492;-78
2024/02/15 09:18:05;;;;;;;7.47;6.87;;;13.80;99.90;;;;;;5112514;28;20460;-78
2024/02/15 09:20:33;;;;;;;8.53;7.63;;;13.90;99.90;;;;;;5113908;28;20463;-78
2024/02/15 09:23:04;;;;;;;7.70;7.00;;;13.90;99.90;;;;;;5113888;28;20464;-78
2024/02/15 09:25:33;;;;;;;8.33;7.50;;;14.00;99.90;;;;;;5113687;28;20785;-78
2024/02/15 09:28:00;;;;;;;11.03;8.93;;;13.90;99.90;;;;;;5113889;28;20552;-78
2024/02/15 09:30:27;;;;;;;9.17;8.30;;;14.00;99.90;;;;;;5112923;28;20693;-78
2024/02/15 09:32:54;;;;;;;11.40;10.03;;;13.90;99.90;;;;;;5113642;28;20483;-78
2024/02/15 09:35:23;;;;;;;8.63;7.83;;;14.00;99.90;;;;;;5113191;28;20457;-78
2024/02/15 09:37:52;;;;;;;9.27;8.37;;;14.00;99.90;;;;;;5113746;28;20456;-78
2024/02/15 09:40:20;;;;;;;9.07;7.30;;;14.00;99.90;;;;;;5113110;28;20460;-78
2024/02/15 09:42:48;;;;;;;11.83;10.53;;;14.00;99.90;;;;;;5113381;28;20574;-78
2024/02/15 09:45:17;;;;;;;10.00;8.70;;;14.00;99.90;;;;;;5112947;28;20453;-78
2024/02/15 09:47:46;;;;;;;8.13;7.33;;;14.00;99.90;;;;;;5113380;28;20499;-78
2024/02/15 09:50:14;;;;;;;7.27;6.60;;;14.00;99.90;;;;;;5113052;28;20874;-78
2024/02/15 09:52:46;;;;;;;12.03;10.30;;;14.00;99.90;;;;;;5113603;28;20991;-78
2024/02/15 09:55:13;;;;;;;7.43;6.80;;;14.00;99.90;;;;;;5113018;28;20468;-76
2024/02/15 09:57:42;;;;;;;8.43;7.30;;;14.00;99.90;;;;;;5113572;28;20475;-75
2024/02/15 10:00:13;;;;;;;7.57;6.87;;;14.00;99.90;;;;;;5112901;28;20468;-77
2024/02/15 10:02:42;;;;;;;7.97;6.83;;;14.00;99.90;;;;;;5113252;28;20543;-76
2024/02/15 10:05:11;;;;;;;6.30;5.80;;;14.00;99.90;;;;;;5113323;28;20515;-76
2024/02/15 10:07:38;;;;;;;7.20;6.50;;;14.00;99.90;;;;;;5113187;28;20532;-78
2024/02/15 10:10:26;;;;;;;7.70;6.90;;;14.00;99.90;;;;;;5102854;28;20988;-78
2024/02/15 10:12:56;;;;;;;8.50;7.73;;;14.00;99.90;;;;;;5104746;28;20504;-78
2024/02/15 10:15:35;;;;;;;9.70;7.97;;;14.10;99.90;;;;;;5113024;28;20456;-78
2024/02/15 10:18:03;;;;;;;7.10;6.50;;;14.10;99.90;;;;;;5112981;28;20460;-78
2024/02/15 10:20:31;;;;;;;6.53;5.60;;;14.10;99.90;;;;;;5112877;28;20480;-78
2024/02/15 10:23:11;;;;;;;7.07;6.37;;;14.20;99.90;;;;;;5113246;28;20876;-78
2024/02/15 10:25:40;;;;;;;6.87;6.27;;;14.30;99.90;;;;;;5115999;28;20471;-78
2024/02/15 10:28:08;;;;;;;9.03;8.13;;;14.30;99.90;;;;;;5116698;28;20448;-78
2024/02/15 10:30:36;;;;;;;7.50;6.83;;;14.40;99.90;;;;;;5117426;28;20471;-78
2024/02/15 10:33:03;;;;;;;6.87;6.17;;;14.40;99.90;;;;;;5116249;28;20478;-78
2024/02/15 10:35:31;;;;;;;7.17;6.50;;;14.40;99.90;;;;;;5116910;28;20472;-78
2024/02/15 10:38:07;;;;;;;6.27;5.63;;;14.40;99.90;;;;;;5116278;28;20464;-76
2024/02/15 10:40:35;;;;;;;6.33;5.73;;;14.50;99.90;;;;;;5116939;28;20494;-76
2024/02/15 10:43:05;;;;;;;6.23;5.17;;;14.50;99.90;;;;;;5116107;28;20795;-76
2024/02/15 10:45:34;;;;;;;6.70;5.60;;;14.50;99.90;;;;;;5116811;28;20551;-76
2024/02/15 10:48:01;;;;;;;9.40;8.33;;;14.60;99.90;;;;;;5116636;28;20525;-76
2024/02/15 10:50:28;;;;;;;9.27;8.43;;;14.50;99.90;;;;;;5116612;28;20810;-76
2024/02/15 10:52:56;;;;;;;9.03;8.10;;;14.60;99.90;;;;;;5115838;28;20472;-78
2024/02/15 10:55:41;;;;;;;7.53;6.73;;;14.60;99.90;;;;;;5116141;28;20483;-78
2024/02/15 10:58:09;;;;;;;8.23;7.03;;;14.70;99.90;;;;;;5116005;28;20857;-78
2024/02/15 11:00:39;;;;;;;7.97;7.17;;;14.80;99.90;;;;;;5116438;28;20578;-78
2024/02/15 11:03:09;;;;;;;11.70;6.20;;;14.80;99.90;;;;;;5116081;28;20462;-76
2024/02/15 11:05:37;;;;;;;6.47;5.80;;;14.90;99.90;;;;;;5116294;28;20461;-76
2024/02/15 11:08:06;;;;;;;5.90;5.40;;;15.00;99.90;;;;;;5115867;28;20467;-76
2024/02/15 11:10:34;;;;;;;27.47;18.63;;;15.00;99.90;;;;;;5116145;28;20468;-76
2024/02/15 11:13:02;;;;;;;8.13;7.37;;;15.10;99.90;;;;;;5115780;28;20495;-76
2024/02/15 11:15:53;;;;;;;6.17;4.87;;;15.10;99.90;;;;;;5116124;28;20464;-76
2024/02/15 11:18:48;;;;;;;5.80;5.30;;;15.20;99.90;;;;;;5109522;28;20449;-76
2024/02/15 11:21:16;;;;;;;5.83;5.33;;;15.20;99.90;;;;;;5114804;28;20539;-77
2024/02/15 11:23:44;;;;;;;7.50;4.37;;;15.20;99.90;;;;;;5116034;28;20479;-78
2024/02/15 11:26:32;;;;;;;5.33;4.83;;;15.20;99.90;;;;;;5115796;28;20476;-78
2024/02/15 11:29:00;;;;;;;4.83;4.10;;;15.20;99.90;;;;;;5116242;28;20475;-79
2024/02/15 11:31:56;;;;;;;5.60;4.83;;;15.20;99.90;;;;;;5118729;28;20456;-79
2024/02/15 11:34:48;;;;;;;5.57;4.93;;;15.10;99.90;;;;;;5118200;28;20449;-79
2024/02/15 11:37:52;;;;;;;5.53;4.47;;;15.20;99.90;;;;;;5117181;28;20464;-79
2024/02/15 11:40:22;;;;;;;4.93;4.10;;;15.20;99.90;;;;;;5119692;28;20562;-78
2024/02/15 11:42:50;;;;;;;8.37;4.13;;;15.20;99.90;;;;;;5120589;28;20465;-78
2024/02/15 11:45:19;;;;;;;4.87;4.43;;;15.20;99.90;;;;;;5122529;28;20956;-78
2024/02/15 11:47:51;;;;;;;7.00;4.60;;;15.20;99.90;;;;;;5120498;28;20473;-78
2024/02/15 11:50:20;;;;;;;4.23;3.80;;;15.10;99.90;;;;;;5121166;28;20468;-78
2024/02/15 11:52:48;;;;;;;4.77;4.33;;;15.20;99.90;;;;;;5116645;28;20468;-78
2024/02/15 11:55:19;;;;;;;5.10;4.00;;;15.20;99.90;;;;;;5115171;28;20609;-76
2024/02/15 11:58:02;;;;;;;4.33;3.93;;;15.20;99.90;;;;;;5115452;28;20471;-76
2024/02/15 12:19:53;;;;;;;5.90;5.33;;;15.20;99.90;;;;;;5115744;28;20468;-76
2024/02/15 12:22:25;;;;;;;4.90;4.50;;;15.30;99.90;;;;;;5114473;28;20547;-76
2024/02/15 12:25:01;;;;;;;5.63;5.07;;;15.30;99.90;;;;;;5114976;28;20469;-76
2024/02/15 12:27:28;;;;;;;5.20;4.80;;;15.30;99.90;;;;;;5113831;28;20956;-76
2024/02/15 12:29:57;;;;;;;5.10;3.80;;;15.30;99.90;;;;;;5114610;28;20468;-76
2024/02/15 12:32:26;;;;;;;4.50;4.10;;;15.30;99.90;;;;;;5113823;28;20489;-76
2024/02/15 12:35:10;;;;;;;4.50;4.10;;;15.30;99.90;;;;;;5114265;28;20460;-76
2024/02/15 12:37:37;;;;;;;4.97;4.53;;;15.30;99.90;;;;;;5114345;28;20448;-76
2024/02/15 12:40:15;;;;;;;11.77;8.33;;;15.30;99.90;;;;;;5114402;28;20460;-76
2024/02/15 12:42:42;;;;;;;6.77;6.17;;;15.30;99.90;;;;;;5113204;28;20539;-76
2024/02/15 12:45:18;;;;;;;5.10;4.60;;;15.30;99.90;;;;;;5114381;28;20491;-76
2024/02/15 12:47:46;;;;;;;3.80;3.50;;;15.40;99.90;;;;;;5113961;28;20452;-76
2024/02/15 12:50:18;;;;;;;3.40;3.10;;;15.40;99.90;;;;;;5114108;28;20479;-76
2024/02/15 12:52:47;;;;;;;3.60;3.30;;;15.40;99.90;;;;;;5113605;28;20468;-76
2024/02/15 12:55:16;;;;;;;5.33;3.10;;;15.50;99.90;;;;;;5114525;28;20471;-78
2024/02/15 12:57:52;;;;;;;3.30;2.93;;;15.50;99.90;;;;;;5113783;28;20498;-78
2024/02/15 13:00:20;;;;;;;3.40;3.10;;;15.50;99.90;;;;;;5114276;28;21029;-78
2024/02/15 13:02:50;;;;;;;3.10;2.80;;;15.60;99.90;;;;;;5113304;28;20472;-78
2024/02/15 13:05:19;;;;;;;3.70;3.40;;;15.60;99.90;;;;;;5114411;28;20452;-78
2024/02/15 13:07:57;;;;;;;3.03;2.73;;;15.60;99.90;;;;;;5113447;28;20457;-78
2024/02/15 13:10:24;;;;;;;4.47;3.07;;;15.60;99.90;;;;;;5113850;28;20487;-76
2024/02/15 13:12:55;;;;;;;3.17;2.77;;;15.60;99.90;;;;;;5103365;28;20484;-76
2024/02/15 13:15:27;;;;;;;3.63;3.07;;;15.60;99.90;;;;;;5113445;28;20468;-76
2024/02/15 13:17:55;;;;;;;3.90;3.40;;;15.60;99.90;;;;;;5113707;28;20944;-78
2024/02/15 13:20:31;;;;;;;7.53;3.13;;;15.60;99.90;;;;;;5113385;28;20472;-76